Time;durP1;ratioP1;P1;durP2;ratioP2;P2;SDS_P1;SDS_P2;PMS_P1;PMS_P2;Temp;Humidity;BMP_temperature;BMP_pressure;BME280_temperature;BME280_humidity;BME280_pressure;Samples;Min_cycle;Max_cycle;Signal;HPM_P1;HPM_P2
2023/11/04 00:01:26;;;;;;;1.02;0.60;;;9.10;99.90;;;;;;5045889;28;20108;-77
2023/11/04 00:03:54;;;;;;;0.40;0.40;;;9.20;99.90;;;;;;5035669;28;20424;-78
2023/11/04 00:06:22;;;;;;;3.65;0.60;;;9.10;99.90;;;;;;5041070;28;20045;-78
2023/11/04 00:08:49;;;;;;;2.58;0.55;;;9.10;99.90;;;;;;5044527;28;20548;-78
2023/11/04 00:11:16;;;;;;;0.93;0.47;;;9.20;99.90;;;;;;5038642;28;20053;-78
2023/11/04 00:13:42;;;;;;;1.15;0.57;;;9.10;99.90;;;;;;5046515;28;20139;-80
2023/11/04 00:16:09;;;;;;;0.50;0.50;;;9.10;99.90;;;;;;5040236;28;20045;-80
2023/11/04 00:18:37;;;;;;;0.75;0.47;;;9.20;99.90;;;;;;5031332;28;20488;-78
2023/11/04 00:21:07;;;;;;;1.15;0.70;;;9.20;99.90;;;;;;5035967;28;20461;-77
2023/11/04 00:23:33;;;;;;;1.27;0.63;;;9.10;99.90;;;;;;5034634;28;20041;-79
2023/11/04 00:26:00;;;;;;;0.60;0.47;;;9.10;99.90;;;;;;5033464;28;20764;-79
2023/11/04 00:28:27;;;;;;;4.07;0.80;;;9.10;99.90;;;;;;5042548;28;20080;-78
2023/11/04 00:30:54;;;;;;;1.52;0.60;;;9.10;99.90;;;;;;5036963;28;20061;-80
2023/11/04 00:33:21;;;;;;;1.63;0.60;;;9.10;99.90;;;;;;5033505;28;20500;-78
2023/11/04 00:35:49;;;;;;;0.57;0.50;;;9.10;99.90;;;;;;5037753;28;20107;-80
2023/11/04 00:38:16;;;;;;;1.63;0.77;;;9.10;99.90;;;;;;5030011;28;20615;-80
2023/11/04 00:40:43;;;;;;;3.42;1.65;;;9.10;99.90;;;;;;5033162;28;20092;-80
2023/11/04 00:43:10;;;;;;;0.88;0.73;;;9.10;99.90;;;;;;5041623;28;20046;-79
2023/11/04 00:45:36;;;;;;;1.23;0.70;;;9.10;99.90;;;;;;5038014;28;20037;-78
2023/11/04 00:48:03;;;;;;;0.40;0.40;;;9.10;99.90;;;;;;5040096;28;20060;-80
2023/11/04 00:50:30;;;;;;;1.20;0.50;;;9.00;99.90;;;;;;5047791;28;20045;-80
2023/11/04 00:52:57;;;;;;;2.08;0.47;;;9.00;99.90;;;;;;5036350;28;20107;-79
2023/11/04 00:55:24;;;;;;;0.63;0.50;;;9.00;99.90;;;;;;5037775;28;20110;-80
2023/11/04 00:57:50;;;;;;;0.70;0.50;;;9.00;99.90;;;;;;5044318;28;20098;-79
2023/11/04 01:00:23;;;;;;;1.70;0.60;;;9.00;99.90;;;;;;5042578;28;20041;-78
2023/11/04 01:02:52;;;;;;;0.82;0.40;;;8.90;99.90;;;;;;5034193;28;20479;-78
2023/11/04 01:05:19;;;;;;;0.90;0.50;;;8.90;99.90;;;;;;5046514;28;20068;-80
2023/11/04 01:07:46;;;;;;;1.40;0.63;;;8.90;99.90;;;;;;5030134;28;20140;-80
2023/11/04 01:10:13;;;;;;;0.70;0.60;;;8.90;99.90;;;;;;5043438;28;20050;-78
2023/11/04 01:12:40;;;;;;;0.85;0.52;;;8.90;99.90;;;;;;5052785;28;20045;-79
2023/11/04 01:15:07;;;;;;;0.63;0.60;;;8.90;99.90;;;;;;5038691;28;20054;-79
2023/11/04 01:17:34;;;;;;;0.88;0.57;;;8.90;99.90;;;;;;5041248;28;20073;-79
2023/11/04 01:20:01;;;;;;;1.55;0.80;;;9.00;99.90;;;;;;5037781;28;20521;-80
2023/11/04 01:22:27;;;;;;;0.85;0.45;;;9.00;99.90;;;;;;5028238;28;20044;-78
2023/11/04 01:24:54;;;;;;;1.75;0.55;;;9.00;99.90;;;;;;5041374;28;20079;-77
2023/11/04 01:27:21;;;;;;;1.88;0.70;;;9.00;99.90;;;;;;5041871;28;20045;-80
2023/11/04 01:29:49;;;;;;;2.28;0.40;;;9.00;99.90;;;;;;5042318;28;20475;-78
2023/11/04 01:32:16;;;;;;;1.20;0.63;;;9.00;99.90;;;;;;5036393;28;20053;-79
2023/11/04 01:34:43;;;;;;;1.08;0.68;;;9.00;99.90;;;;;;5044138;28;20132;-79
2023/11/04 01:37:10;;;;;;;0.60;0.60;;;9.00;99.90;;;;;;5048176;28;20051;-80
2023/11/04 01:39:37;;;;;;;0.90;0.50;;;9.00;99.90;;;;;;5045343;28;20453;-80
2023/11/04 01:42:05;;;;;;;0.82;0.47;;;9.00;99.90;;;;;;5039541;28;20045;-80
2023/11/04 01:44:33;;;;;;;0.45;0.45;;;9.00;99.90;;;;;;5045494;28;20049;-80
2023/11/04 01:47:00;;;;;;;0.55;0.50;;;9.00;99.90;;;;;;5039400;23;20093;-79
2023/11/04 01:49:27;;;;;;;0.68;0.50;;;9.00;99.90;;;;;;5007440;28;20045;-79
2023/11/04 01:51:55;;;;;;;0.50;0.50;;;9.10;99.90;;;;;;5001338;28;20085;-80
2023/11/04 01:54:23;;;;;;;1.13;0.50;;;9.10;99.90;;;;;;5013713;28;20050;-80
2023/11/04 01:56:51;;;;;;;0.45;0.40;;;9.10;99.90;;;;;;5007965;28;20057;-80
2023/11/04 01:59:18;;;;;;;0.60;0.40;;;9.10;99.90;;;;;;5001688;28;20047;-80
2023/11/04 02:01:45;;;;;;;0.50;0.40;;;9.10;99.90;;;;;;4996011;28;20494;-80
2023/11/04 02:04:13;;;;;;;1.13;0.30;;;9.10;99.90;;;;;;5002793;28;20395;-80
2023/11/04 02:06:40;;;;;;;1.63;0.55;;;9.20;99.90;;;;;;4996017;28;20096;-79
2023/11/04 02:09:07;;;;;;;1.08;0.50;;;9.10;99.90;;;;;;5005011;28;20046;-79
2023/11/04 02:11:33;;;;;;;0.40;0.40;;;9.10;99.90;;;;;;5002749;28;20129;-80
2023/11/04 02:14:00;;;;;;;0.63;0.50;;;9.10;99.90;;;;;;4999759;28;20102;-80
2023/11/04 02:16:27;;;;;;;1.75;0.47;;;9.10;99.90;;;;;;4998912;28;20080;-80
2023/11/04 02:18:54;;;;;;;1.55;0.40;;;9.10;99.90;;;;;;4996235;28;20108;-78
2023/11/04 02:21:22;;;;;;;1.35;0.70;;;9.10;99.90;;;;;;5002499;28;20461;-80
2023/11/04 02:23:49;;;;;;;0.40;0.40;;;9.10;99.90;;;;;;5005738;28;20069;-79
2023/11/04 02:26:17;;;;;;;0.40;0.40;;;9.10;99.90;;;;;;5001734;28;20496;-79
2023/11/04 02:28:44;;;;;;;1.83;0.60;;;9.10;99.90;;;;;;5003163;28;20060;-80
2023/11/04 02:31:10;;;;;;;0.55;0.30;;;9.10;99.90;;;;;;4999466;28;20085;-80
2023/11/04 02:33:38;;;;;;;0.65;0.50;;;9.10;99.90;;;;;;4995882;28;20050;-80
2023/11/04 02:36:06;;;;;;;3.03;0.60;;;9.10;99.90;;;;;;5000410;28;20068;-80
2023/11/04 02:38:32;;;;;;;0.70;0.50;;;9.10;99.90;;;;;;5012919;28;20049;-80
2023/11/04 02:40:59;;;;;;;0.57;0.40;;;9.10;99.90;;;;;;4999993;28;20058;-80
2023/11/04 02:43:26;;;;;;;0.40;0.40;;;9.10;99.90;;;;;;4994837;28;20565;-80
2023/11/04 02:45:53;;;;;;;1.60;0.50;;;9.10;99.90;;;;;;4996077;28;20486;-80
2023/11/04 02:48:19;;;;;;;1.90;0.50;;;9.10;99.90;;;;;;4996035;28;20062;-80
2023/11/04 02:50:46;;;;;;;0.40;0.40;;;9.10;99.90;;;;;;5002178;28;20050;-80
2023/11/04 02:53:13;;;;;;;0.40;0.40;;;9.10;99.90;;;;;;5011334;28;20529;-80
2023/11/04 02:55:40;;;;;;;0.38;0.30;;;9.10;99.90;;;;;;5001551;28;20054;-80
2023/11/04 02:58:06;;;;;;;1.42;0.50;;;9.10;99.90;;;;;;4999460;28;20088;-79
2023/11/04 03:00:34;;;;;;;0.47;0.47;;;9.00;99.90;;;;;;5000821;28;20425;-80
2023/11/04 03:03:00;;;;;;;0.75;0.30;;;9.00;99.90;;;;;;4999661;28;20051;-80
2023/11/04 03:05:28;;;;;;;1.15;0.60;;;9.00;99.90;;;;;;4998306;28;20054;-79
2023/11/04 03:08:03;;;;;;;1.75;0.60;;;9.00;99.90;;;;;;4998053;28;20449;-80
2023/11/04 03:10:30;;;;;;;0.50;0.40;;;9.00;99.90;;;;;;4998881;28;20421;-79
2023/11/04 03:12:57;;;;;;;0.40;0.40;;;9.00;99.90;;;;;;5004740;28;20045;-80
2023/11/04 03:15:24;;;;;;;0.63;0.50;;;9.00;99.90;;;;;;5001987;28;20093;-80
2023/11/04 03:17:50;;;;;;;0.38;0.38;;;8.90;99.90;;;;;;4999968;28;20042;-79
2023/11/04 03:20:17;;;;;;;0.30;0.30;;;8.90;99.90;;;;;;5005299;28;20064;-80
2023/11/04 03:22:44;;;;;;;1.02;0.30;;;8.90;99.90;;;;;;5006667;28;20061;-81
2023/11/04 03:25:12;;;;;;;0.40;0.40;;;8.90;99.90;;;;;;5004912;28;20058;-79
2023/11/04 03:27:39;;;;;;;0.57;0.47;;;8.80;99.90;;;;;;5003626;28;20085;-78
2023/11/04 03:30:06;;;;;;;0.40;0.40;;;8.80;99.90;;;;;;5002397;28;20407;-80
2023/11/04 03:32:33;;;;;;;0.30;0.30;;;8.70;99.90;;;;;;5010760;28;20046;-80
2023/11/04 03:35:00;;;;;;;0.43;0.30;;;8.70;99.90;;;;;;5018346;28;20049;-80
2023/11/04 03:37:26;;;;;;;0.60;0.40;;;8.60;99.90;;;;;;5009073;28;20046;-79
2023/11/04 03:39:53;;;;;;;0.55;0.25;;;8.60;99.90;;;;;;5004910;28;20426;-78
2023/11/04 03:42:20;;;;;;;0.40;0.40;;;8.60;99.90;;;;;;5009197;28;20046;-79
2023/11/04 03:44:47;;;;;;;0.30;0.30;;;8.50;99.90;;;;;;5002306;28;20047;-79
2023/11/04 03:47:14;;;;;;;1.20;0.50;;;8.50;99.90;;;;;;5004615;28;20061;-78
2023/11/04 03:49:41;;;;;;;0.30;0.30;;;8.50;99.90;;;;;;5007217;28;20049;-79
2023/11/04 03:52:09;;;;;;;0.40;0.40;;;8.40;99.90;;;;;;5006370;28;20046;-78
2023/11/04 03:54:36;;;;;;;0.45;0.38;;;8.40;99.90;;;;;;5005427;28;20049;-78
2023/11/04 03:57:03;;;;;;;0.93;0.40;;;8.40;99.90;;;;;;5003749;28;20074;-78
2023/11/04 03:59:29;;;;;;;0.40;0.40;;;8.40;99.90;;;;;;5005007;28;20050;-79
2023/11/04 04:01:56;;;;;;;1.67;0.65;;;8.30;99.90;;;;;;4999678;28;20058;-80
2023/11/04 04:04:23;;;;;;;0.60;0.52;;;8.30;99.90;;;;;;5012449;28;20100;-78
2023/11/04 04:06:52;;;;;;;0.32;0.30;;;8.40;99.90;;;;;;5014735;28;20078;-79
2023/11/04 04:09:18;;;;;;;0.40;0.40;;;8.30;99.90;;;;;;5006355;28;20046;-78
2023/11/04 04:11:45;;;;;;;0.70;0.30;;;8.40;99.90;;;;;;5000597;28;20058;-79
2023/11/04 04:14:12;;;;;;;0.60;0.40;;;8.40;99.90;;;;;;5000225;28;20047;-81
2023/11/04 04:16:39;;;;;;;0.60;0.50;;;8.40;99.90;;;;;;4998184;28;20177;-80
2023/11/04 04:19:05;;;;;;;0.70;0.30;;;8.40;99.90;;;;;;5005500;28;20522;-80
2023/11/04 04:21:32;;;;;;;0.35;0.35;;;8.50;99.90;;;;;;5005672;28;20045;-81
2023/11/04 04:23:59;;;;;;;0.43;0.43;;;8.50;99.90;;;;;;5002167;28;20049;-81
2023/11/04 04:26:26;;;;;;;0.30;0.30;;;8.50;99.90;;;;;;5005795;28;20049;-78
2023/11/04 04:28:53;;;;;;;0.40;0.40;;;8.50;99.90;;;;;;5000532;28;20050;-79
2023/11/04 04:31:19;;;;;;;1.85;0.30;;;8.60;99.90;;;;;;5006076;28;20326;-79
2023/11/04 04:33:46;;;;;;;0.30;0.30;;;8.60;99.90;;;;;;5009765;28;20470;-79
2023/11/04 04:36:13;;;;;;;2.10;0.40;;;8.70;99.90;;;;;;5005918;28;20089;-79
2023/11/04 04:38:40;;;;;;;0.40;0.40;;;8.70;99.90;;;;;;5004224;28;20050;-79
2023/11/04 04:41:08;;;;;;;2.28;0.40;;;8.70;99.90;;;;;;5001493;28;20050;-78
2023/11/04 04:43:36;;;;;;;0.30;0.30;;;8.80;99.90;;;;;;5000784;28;20521;-79
2023/11/04 04:46:04;;;;;;;0.57;0.50;;;8.80;99.90;;;;;;4998511;28;20046;-78
2023/11/04 04:48:31;;;;;;;1.30;0.40;;;8.80;99.90;;;;;;5014856;28;20129;-79
2023/11/04 04:50:58;;;;;;;1.35;0.40;;;8.80;99.90;;;;;;5003838;28;20057;-79
2023/11/04 04:53:24;;;;;;;0.85;0.30;;;8.80;99.90;;;;;;5003604;28;20089;-80
2023/11/04 04:55:53;;;;;;;2.03;0.45;;;8.80;99.90;;;;;;4999644;28;20449;-80
2023/11/04 04:58:22;;;;;;;1.38;0.35;;;8.80;99.90;;;;;;5004666;28;20090;-81
2023/11/04 05:00:48;;;;;;;2.20;0.73;;;8.80;99.90;;;;;;4997791;28;20046;-80
2023/11/04 05:03:15;;;;;;;0.40;0.30;;;8.80;99.90;;;;;;5006565;28;20054;-81
2023/11/04 05:05:42;;;;;;;0.30;0.30;;;8.70;99.90;;;;;;5003751;28;20053;-80
2023/11/04 05:08:09;;;;;;;0.60;0.60;;;8.70;99.90;;;;;;5001476;28;20058;-81
2023/11/04 05:10:36;;;;;;;0.88;0.32;;;8.70;99.90;;;;;;5000596;28;20124;-80
2023/11/04 05:13:06;;;;;;;0.90;0.77;;;8.70;99.90;;;;;;4997779;28;20049;-80
2023/11/04 05:15:33;;;;;;;1.75;0.38;;;8.60;99.90;;;;;;5008421;28;20524;-80
2023/11/04 05:18:00;;;;;;;1.55;0.40;;;8.60;99.90;;;;;;4996182;28;20096;-81
2023/11/04 05:20:27;;;;;;;1.92;0.40;;;8.60;99.90;;;;;;4996723;28;20054;-80
2023/11/04 05:22:53;;;;;;;0.70;0.47;;;8.60;99.90;;;;;;4998063;28;20077;-80
2023/11/04 05:25:22;;;;;;;0.55;0.47;;;8.60;99.90;;;;;;4996898;28;20093;-81
2023/11/04 05:27:49;;;;;;;0.43;0.43;;;8.70;99.90;;;;;;4999271;28;20058;-80
2023/11/04 05:30:15;;;;;;;0.88;0.40;;;8.60;99.90;;;;;;5001149;28;20069;-81
2023/11/04 05:32:42;;;;;;;0.40;0.40;;;8.60;99.90;;;;;;5004865;28;20429;-79
2023/11/04 05:35:09;;;;;;;0.20;0.20;;;8.70;99.90;;;;;;5000545;28;20050;-79
2023/11/04 05:37:36;;;;;;;0.98;0.93;;;8.70;99.90;;;;;;5001655;28;20041;-80
2023/11/04 05:40:03;;;;;;;0.50;0.30;;;8.70;99.90;;;;;;4997491;28;20105;-80
2023/11/04 05:42:30;;;;;;;0.43;0.40;;;8.80;99.90;;;;;;4997848;28;20077;-80
2023/11/04 05:44:57;;;;;;;0.90;0.30;;;8.80;99.90;;;;;;5001905;28;20046;-79
2023/11/04 05:47:24;;;;;;;0.40;0.40;;;8.90;99.90;;;;;;5005211;28;20054;-79
2023/11/04 05:49:50;;;;;;;0.32;0.32;;;9.00;99.90;;;;;;5001221;28;20082;-80
2023/11/04 05:52:17;;;;;;;1.45;0.40;;;9.00;99.90;;;;;;5000722;28;20046;-80
2023/11/04 05:54:44;;;;;;;1.23;0.38;;;9.10;99.90;;;;;;4998260;28;20097;-80
2023/11/04 05:57:11;;;;;;;0.32;0.30;;;9.10;99.90;;;;;;4995646;28;20043;-80
2023/11/04 05:59:37;;;;;;;0.30;0.30;;;9.10;99.90;;;;;;4998687;28;20038;-79
2023/11/04 06:02:04;;;;;;;1.60;0.38;;;9.20;99.90;;;;;;5005410;28;20318;-80
2023/11/04 06:04:31;;;;;;;3.03;0.85;;;9.20;99.90;;;;;;5003656;28;20069;-80
2023/11/04 06:06:58;;;;;;;0.68;0.47;;;9.20;99.90;;;;;;4998328;28;20097;-80
2023/11/04 06:09:25;;;;;;;0.38;0.38;;;9.30;99.90;;;;;;4999250;28;20050;-78
2023/11/04 06:11:52;;;;;;;0.45;0.35;;;9.30;99.90;;;;;;4996836;28;20136;-80
2023/11/04 06:14:19;;;;;;;0.30;0.30;;;9.30;99.90;;;;;;5004327;28;20050;-79
2023/11/04 06:16:46;;;;;;;1.98;0.38;;;9.30;99.90;;;;;;5003170;28;20054;-80
2023/11/04 06:19:12;;;;;;;1.10;0.30;;;9.30;99.90;;;;;;5000966;28;20078;-80
2023/11/04 06:21:39;;;;;;;0.52;0.40;;;9.30;99.90;;;;;;5003720;28;20049;-79
2023/11/04 06:24:07;;;;;;;0.30;0.30;;;9.30;99.90;;;;;;4997427;28;20058;-80
2023/11/04 06:26:34;;;;;;;0.57;0.40;;;9.30;99.90;;;;;;4997692;28;20046;-80
2023/11/04 06:29:00;;;;;;;0.30;0.30;;;9.30;99.90;;;;;;5003113;28;20045;-78
2023/11/04 06:31:28;;;;;;;0.30;0.30;;;9.30;99.90;;;;;;5004828;28;20496;-80
2023/11/04 06:33:54;;;;;;;0.95;0.50;;;9.30;99.90;;;;;;5001755;28;20054;-80
2023/11/04 06:36:22;;;;;;;0.40;0.40;;;9.30;99.90;;;;;;4999934;28;20050;-79
2023/11/04 06:38:49;;;;;;;0.57;0.50;;;9.40;99.90;;;;;;5001379;28;20077;-80
2023/11/04 06:41:16;;;;;;;0.50;0.50;;;9.40;99.90;;;;;;5003242;28;20053;-79
2023/11/04 06:47:25;;;;;;;0.52;0.35;;;9.40;99.90;;;;;;5009825;28;20051;-78
2023/11/04 06:49:52;;;;;;;1.77;0.40;;;9.50;99.90;;;;;;5009973;28;20057;-79
2023/11/04 06:52:19;;;;;;;2.65;0.40;;;9.50;99.90;;;;;;5001128;28;20050;-79
2023/11/04 06:54:45;;;;;;;0.30;0.30;;;9.50;99.90;;;;;;4999974;28;20109;-79
2023/11/04 06:57:12;;;;;;;0.20;0.20;;;9.50;99.90;;;;;;5002840;28;20046;-80
2023/11/04 06:59:42;;;;;;;1.02;0.30;;;9.60;99.90;;;;;;5008450;28;20493;-79
2023/11/04 07:02:08;;;;;;;0.20;0.20;;;9.60;99.90;;;;;;5003262;28;20399;-80
2023/11/04 07:04:35;;;;;;;0.50;0.40;;;9.60;99.90;;;;;;5004449;28;20038;-80
2023/11/04 07:07:02;;;;;;;0.47;0.25;;;9.60;99.90;;;;;;5000039;28;20046;-80
2023/11/04 07:09:33;;;;;;;1.35;0.30;;;9.60;99.90;;;;;;4999786;28;20047;-78
2023/11/04 07:12:00;;;;;;;0.20;0.20;;;9.60;99.90;;;;;;5005676;28;20054;-80
2023/11/04 07:14:26;;;;;;;0.20;0.20;;;9.60;99.90;;;;;;5006734;28;20050;-79
2023/11/04 07:16:55;;;;;;;0.30;0.30;;;9.60;99.90;;;;;;5005300;28;20108;-78
2023/11/04 07:19:22;;;;;;;0.60;0.30;;;9.60;99.90;;;;;;5002982;28;20466;-80
2023/11/04 07:21:49;;;;;;;0.73;0.30;;;9.60;99.90;;;;;;5005756;28;20065;-81
2023/11/04 07:24:16;;;;;;;0.50;0.35;;;9.60;99.90;;;;;;4999681;28;20521;-80
2023/11/04 07:26:44;;;;;;;0.30;0.30;;;9.60;99.90;;;;;;5005606;28;20110;-80
2023/11/04 07:29:11;;;;;;;0.30;0.30;;;9.60;99.90;;;;;;5004091;28;20046;-79
2023/11/04 07:31:38;;;;;;;0.50;0.30;;;9.60;99.90;;;;;;5005741;28;20481;-80
2023/11/04 07:34:05;;;;;;;0.28;0.28;;;9.60;99.90;;;;;;5001014;28;20050;-80
2023/11/04 07:36:32;;;;;;;0.40;0.38;;;9.60;99.90;;;;;;5000993;28;20054;-79
2023/11/04 07:38:59;;;;;;;2.05;0.38;;;9.60;99.90;;;;;;4998442;28;20046;-80
2023/11/04 07:41:26;;;;;;;0.47;0.30;;;9.60;99.90;;;;;;5011389;28;20490;-79
2023/11/04 07:43:53;;;;;;;0.28;0.28;;;9.60;99.90;;;;;;5006981;28;20068;-79
2023/11/04 07:46:23;;;;;;;0.25;0.25;;;9.60;99.90;;;;;;5003875;28;20136;-80
2023/11/04 07:48:50;;;;;;;0.30;0.30;;;9.70;99.90;;;;;;5001619;28;20077;-79
2023/11/04 07:51:17;;;;;;;0.30;0.30;;;9.80;99.90;;;;;;4999704;28;20053;-80
2023/11/04 07:53:43;;;;;;;0.68;0.45;;;9.90;99.90;;;;;;4997954;28;20494;-80
2023/11/04 07:56:11;;;;;;;0.30;0.22;;;9.90;99.90;;;;;;4997466;28;20054;-80
2023/11/04 07:58:38;;;;;;;0.30;0.30;;;10.00;99.90;;;;;;4997003;28;20517;-79
2023/11/04 08:01:05;;;;;;;0.38;0.38;;;10.10;99.90;;;;;;4997490;28;20050;-80
2023/11/04 08:03:32;;;;;;;0.65;0.50;;;10.20;99.90;;;;;;5000692;28;20127;-80
2023/11/04 08:05:59;;;;;;;0.30;0.30;;;10.20;99.90;;;;;;5001731;28;20051;-79
2023/11/04 08:08:26;;;;;;;0.22;0.22;;;10.30;99.90;;;;;;5003300;28;20050;-80
2023/11/04 08:10:53;;;;;;;0.98;0.40;;;10.40;99.90;;;;;;5007798;28;20108;-80
2023/11/04 08:13:22;;;;;;;0.30;0.30;;;10.50;99.90;;;;;;5003378;28;20054;-81
2023/11/04 08:15:48;;;;;;;0.32;0.28;;;10.50;99.90;;;;;;5001971;28;20054;-79
2023/11/04 08:18:15;;;;;;;0.90;0.32;;;10.60;99.90;;;;;;4999112;28;20046;-80
2023/11/04 08:20:43;;;;;;;3.03;1.77;;;10.60;99.90;;;;;;5004810;28;20125;-80
2023/11/04 08:23:09;;;;;;;0.50;0.50;;;10.70;99.90;;;;;;4997544;28;20077;-80
2023/11/04 08:25:37;;;;;;;0.95;0.70;;;10.80;99.90;;;;;;5006558;28;20104;-81
2023/11/04 08:28:04;;;;;;;1.58;0.60;;;10.80;99.90;;;;;;5002547;28;20106;-80
2023/11/04 08:30:30;;;;;;;1.65;1.17;;;10.90;99.90;;;;;;4996856;28;20054;-80
2023/11/04 08:32:57;;;;;;;1.13;0.68;;;10.90;99.90;;;;;;4995927;28;20065;-81
2023/11/04 08:35:24;;;;;;;0.82;0.60;;;10.90;99.90;;;;;;4996547;28;20056;-80
2023/11/04 08:37:52;;;;;;;2.00;1.00;;;11.00;99.90;;;;;;4997297;28;20050;-80
2023/11/04 08:40:19;;;;;;;1.52;0.75;;;11.00;99.90;;;;;;5006365;28;20054;-81
2023/11/04 08:42:45;;;;;;;0.70;0.50;;;11.00;99.90;;;;;;5004299;28;20477;-79
2023/11/04 08:45:13;;;;;;;0.40;0.40;;;11.00;99.90;;;;;;4999180;28;20050;-80
2023/11/04 08:47:41;;;;;;;0.50;0.40;;;11.00;99.90;;;;;;5000463;28;20060;-80
2023/11/04 08:50:08;;;;;;;0.63;0.40;;;11.00;99.90;;;;;;4997585;28;20050;-80
2023/11/04 08:52:35;;;;;;;0.30;0.30;;;11.00;99.90;;;;;;4996810;28;20502;-80
2023/11/04 08:55:04;;;;;;;0.20;0.20;;;11.00;99.90;;;;;;5006588;28;20422;-80
2023/11/04 08:57:32;;;;;;;0.45;0.30;;;11.00;99.90;;;;;;5002898;28;20047;-79
2023/11/04 09:00:00;;;;;;;0.40;0.40;;;11.00;99.90;;;;;;4999849;28;20085;-80
2023/11/04 09:02:27;;;;;;;0.30;0.30;;;10.90;99.90;;;;;;5000014;28;20048;-80
2023/11/04 09:04:54;;;;;;;0.30;0.30;;;10.90;99.90;;;;;;4997749;28;20050;-77
2023/11/04 09:07:31;;;;;;;0.30;0.30;;;10.90;99.90;;;;;;5006761;28;20049;-79
2023/11/04 09:09:58;;;;;;;0.30;0.30;;;10.90;99.90;;;;;;5004097;28;20497;-78
2023/11/04 09:12:25;;;;;;;0.20;0.20;;;10.90;99.90;;;;;;5001892;28;20108;-78
2023/11/04 09:14:51;;;;;;;0.65;0.32;;;10.90;99.90;;;;;;5003964;28;20444;-78
2023/11/04 09:17:18;;;;;;;0.88;0.30;;;10.90;99.90;;;;;;4998831;28;20485;-79
2023/11/04 09:19:45;;;;;;;0.30;0.30;;;10.80;99.90;;;;;;4997847;28;20062;-79
2023/11/04 09:22:12;;;;;;;0.93;0.30;;;10.80;99.90;;;;;;4998282;28;20042;-79
2023/11/04 09:24:38;;;;;;;0.57;0.35;;;10.80;99.90;;;;;;5005681;28;20053;-80
2023/11/04 09:27:05;;;;;;;0.20;0.20;;;10.80;99.90;;;;;;4995866;28;20045;-79
2023/11/04 09:29:32;;;;;;;0.73;0.50;;;10.80;99.90;;;;;;5005061;28;20465;-77
2023/11/04 09:31:59;;;;;;;0.32;0.30;;;10.80;99.90;;;;;;4996973;28;20520;-77
2023/11/04 09:34:25;;;;;;;0.20;0.20;;;10.80;99.90;;;;;;4997430;28;20072;-78
2023/11/04 09:36:52;;;;;;;0.40;0.40;;;10.80;99.90;;;;;;5007207;28;20046;-79
2023/11/04 09:39:19;;;;;;;0.40;0.40;;;10.80;99.90;;;;;;5003307;28;20042;-79
2023/11/04 09:41:46;;;;;;;0.55;0.40;;;10.80;99.90;;;;;;5004764;28;20077;-76
2023/11/04 09:44:13;;;;;;;0.43;0.43;;;10.90;99.90;;;;;;5003792;28;20141;-79
2023/11/04 09:46:40;;;;;;;0.57;0.50;;;10.90;99.90;;;;;;5002266;28;20104;-79
2023/11/04 09:49:07;;;;;;;0.77;0.68;;;10.90;99.90;;;;;;4998479;28;20042;-77
2023/11/04 09:51:34;;;;;;;0.82;0.65;;;10.90;99.90;;;;;;5007827;28;20474;-77
2023/11/04 09:54:02;;;;;;;0.43;0.43;;;11.00;99.90;;;;;;5006328;28;20046;-79
2023/11/04 09:56:29;;;;;;;2.35;0.60;;;11.00;99.90;;;;;;5002109;28;20482;-79
2023/11/04 09:58:55;;;;;;;1.63;1.00;;;11.00;99.90;;;;;;5003466;28;20113;-78
2023/11/04 10:01:23;;;;;;;1.05;0.77;;;10.90;99.90;;;;;;4998477;28;20113;-78
2023/11/04 10:03:51;;;;;;;2.13;0.68;;;10.90;99.90;;;;;;4996209;28;20057;-79
2023/11/04 10:06:18;;;;;;;2.78;0.90;;;10.90;99.90;;;;;;5003063;28;20047;-78
2023/11/04 10:08:46;;;;;;;0.68;0.50;;;10.90;99.90;;;;;;5007941;28;20045;-79
2023/11/04 10:11:13;;;;;;;2.08;0.40;;;10.90;99.90;;;;;;5005011;28;20051;-78
2023/11/04 10:13:40;;;;;;;2.83;0.63;;;10.80;99.90;;;;;;5005823;28;20050;-79
2023/11/04 10:16:07;;;;;;;1.17;0.52;;;10.80;99.90;;;;;;5001918;28;20502;-79
2023/11/04 10:18:37;;;;;;;1.92;0.60;;;10.80;99.90;;;;;;5006799;28;20042;-79
2023/11/04 10:21:06;;;;;;;0.40;0.40;;;10.80;99.90;;;;;;5007197;28;20038;-79
2023/11/04 10:23:33;;;;;;;0.63;0.57;;;10.80;99.90;;;;;;5005282;28;20125;-79
2023/11/04 10:26:03;;;;;;;0.73;0.43;;;10.80;99.90;;;;;;5006360;28;20074;-78
2023/11/04 10:28:31;;;;;;;2.38;0.60;;;10.90;99.90;;;;;;5003715;28;20491;-78
2023/11/04 10:31:04;;;;;;;0.82;0.40;;;10.90;99.90;;;;;;5000326;28;20053;-78
2023/11/04 10:33:37;;;;;;;0.73;0.40;;;11.00;99.90;;;;;;4999064;28;20429;-81
2023/11/04 10:36:06;;;;;;;0.63;0.63;;;11.00;99.90;;;;;;5007577;28;20097;-80
2023/11/04 10:38:35;;;;;;;0.43;0.40;;;11.00;99.90;;;;;;5013881;28;20470;-80
2023/11/04 10:41:05;;;;;;;0.60;0.60;;;11.10;99.90;;;;;;5003065;28;20133;-78
2023/11/04 10:43:39;;;;;;;0.95;0.60;;;11.10;99.90;;;;;;5008092;28;20053;-80
2023/11/04 10:46:13;;;;;;;1.05;0.60;;;11.10;99.90;;;;;;5000131;28;20490;-80
2023/11/04 10:48:48;;;;;;;0.50;0.50;;;11.10;99.90;;;;;;5005494;28;20137;-80
2023/11/04 10:51:24;;;;;;;1.10;0.50;;;11.10;99.90;;;;;;5006561;28;20108;-79
2023/11/04 10:54:25;;;;;;;0.43;0.43;;;11.10;99.90;;;;;;5007191;28;20101;-80
2023/11/04 10:57:02;;;;;;;0.52;0.50;;;11.20;99.90;;;;;;5002724;28;20049;-80
2023/11/04 11:00:13;;;;;;;0.55;0.40;;;11.20;99.90;;;;;;4998927;28;20418;-78
2023/11/04 11:02:44;;;;;;;0.52;0.52;;;11.20;99.90;;;;;;4998627;28;20051;-79
2023/11/04 11:05:11;;;;;;;;;;;11.20;99.90;;;;;;4999125;28;20045;-80
2023/11/04 11:07:45;;;;;;;0.43;0.32;;;11.30;99.90;;;;;;5009502;28;19921;-80
2023/11/04 11:10:19;;;;;;;1.73;0.30;;;11.30;99.90;;;;;;5006281;28;20057;-79
2023/11/04 11:12:50;;;;;;;0.90;0.25;;;11.40;99.90;;;;;;5003217;28;20129;-79
2023/11/04 11:15:18;;;;;;;0.98;0.40;;;11.40;99.90;;;;;;5000483;28;20054;-80
2023/11/04 11:18:01;;;;;;;0.60;0.57;;;11.50;99.90;;;;;;4999495;28;20046;-80
2023/11/04 11:20:34;;;;;;;0.20;0.20;;;11.50;99.90;;;;;;5005662;28;20041;-78
2023/11/04 11:23:08;;;;;;;1.75;0.40;;;11.50;99.90;;;;;;5006777;28;20089;-80
2023/11/04 11:25:39;;;;;;;0.43;0.43;;;11.40;99.90;;;;;;4997256;28;20072;-77
2023/11/04 11:28:26;;;;;;;0.73;0.40;;;11.40;99.90;;;;;;4998096;28;20094;-78
2023/11/04 11:30:54;;;;;;;0.30;0.30;;;11.40;99.90;;;;;;5004953;28;20050;-80
2023/11/04 11:33:26;;;;;;;0.82;0.32;;;11.40;99.90;;;;;;5004417;28;20077;-79
2023/11/04 11:35:57;;;;;;;0.43;0.20;;;11.40;99.90;;;;;;5006951;28;20081;-79
2023/11/04 11:38:28;;;;;;;0.20;0.20;;;11.50;99.90;;;;;;5002011;28;20050;-79
2023/11/04 11:41:02;;;;;;;0.30;0.30;;;11.50;99.90;;;;;;5011781;28;20097;-78
2023/11/04 11:43:29;;;;;;;1.95;0.40;;;11.60;99.90;;;;;;5000632;28;20050;-78
2023/11/04 11:45:56;;;;;;;0.20;0.20;;;11.50;99.90;;;;;;5004684;28;20458;-80
2023/11/04 11:48:23;;;;;;;0.30;0.30;;;11.60;99.90;;;;;;5004152;28;20037;-79
2023/11/04 11:50:50;;;;;;;0.93;0.50;;;11.60;99.90;;;;;;5010196;28;20082;-79
2023/11/04 11:53:18;;;;;;;0.77;0.50;;;11.60;99.90;;;;;;5002170;28;20105;-80
2023/11/04 11:55:57;;;;;;;0.40;0.30;;;11.70;99.90;;;;;;5003684;28;20116;-79
2023/11/04 11:58:26;;;;;;;1.60;0.30;;;11.70;99.90;;;;;;5002103;28;20058;-79
2023/11/04 12:00:53;;;;;;;1.27;0.40;;;11.70;99.90;;;;;;5001784;28;20371;-79
2023/11/04 12:03:21;;;;;;;1.35;0.60;;;11.70;99.90;;;;;;5004983;28;20077;-79
2023/11/04 12:05:48;;;;;;;1.23;0.57;;;11.60;99.90;;;;;;5005921;28;20120;-79
2023/11/04 12:08:14;;;;;;;0.25;0.25;;;11.60;99.90;;;;;;5001240;28;20042;-80
2023/11/04 12:10:43;;;;;;;0.60;0.30;;;11.60;99.90;;;;;;5005599;28;20108;-79
2023/11/04 12:13:10;;;;;;;1.95;0.30;;;11.60;99.90;;;;;;4998653;28;20050;-79
2023/11/04 12:15:37;;;;;;;1.13;0.73;;;11.50;99.90;;;;;;4998232;28;20058;-79
2023/11/04 12:18:05;;;;;;;0.40;0.30;;;11.40;99.90;;;;;;5008340;28;20445;-80
2023/11/04 12:20:32;;;;;;;0.30;0.30;;;11.30;99.90;;;;;;5004044;28;20050;-79
2023/11/04 12:22:59;;;;;;;0.43;0.40;;;11.20;99.90;;;;;;5001977;28;20559;-79
2023/11/04 12:25:27;;;;;;;1.00;0.30;;;11.00;99.90;;;;;;5000739;28;20042;-79
2023/11/04 12:27:54;;;;;;;0.50;0.30;;;11.00;99.90;;;;;;5000185;28;20100;-80
2023/11/04 12:30:21;;;;;;;0.90;0.40;;;10.90;99.90;;;;;;5001863;28;20073;-79
2023/11/04 12:32:49;;;;;;;0.73;0.45;;;10.80;99.90;;;;;;5014315;28;20054;-78
2023/11/04 12:35:17;;;;;;;0.52;0.30;;;10.80;99.90;;;;;;5007451;28;20046;-78
2023/11/04 12:37:45;;;;;;;0.85;0.65;;;10.70;99.90;;;;;;5003075;28;20050;-81
2023/11/04 12:40:13;;;;;;;0.40;0.40;;;10.70;99.90;;;;;;4999878;28;20461;-79
2023/11/04 12:42:40;;;;;;;0.40;0.30;;;10.70;99.90;;;;;;5003833;28;20046;-79
2023/11/04 12:45:09;;;;;;;0.60;0.30;;;10.80;99.90;;;;;;4999237;28;20559;-79
2023/11/04 12:47:38;;;;;;;0.32;0.30;;;10.80;99.90;;;;;;5028910;23;20070;-78
2023/11/04 12:50:06;;;;;;;0.52;0.30;;;10.80;99.90;;;;;;5037788;28;20504;-79
2023/11/04 12:52:34;;;;;;;0.63;0.50;;;10.80;99.90;;;;;;5032912;28;20042;-78
2023/11/04 12:55:01;;;;;;;0.60;0.57;;;10.80;99.90;;;;;;5026790;28;20084;-79
2023/11/04 12:57:28;;;;;;;1.98;0.30;;;10.80;99.90;;;;;;5025022;28;20502;-78
2023/11/04 12:59:56;;;;;;;0.20;0.20;;;10.70;99.90;;;;;;5034421;28;20087;-79